Time;durP1;ratioP1;P1;durP2;ratioP2;P2;SDS_P1;SDS_P2;PMS_P1;PMS_P2;Temp;Humidity;BMP_temperature;BMP_pressure;BME280_temperature;BME280_humidity;BME280_pressure;Samples;Min_cycle;Max_cycle;Signal;HPM_P1;HPM_P2
2021/03/26 00:02:46;;;;;;;37.73;29.80;;;;;;;10.49;64.93;101834.56;6214137;28;20221;-55
2021/03/26 00:06:10;;;;;;;39.43;32.87;;;;;;;10.44;65.07;101834.50;6210602;28;20229;-57
2021/03/26 00:09:33;;;;;;;36.33;31.43;;;;;;;10.42;64.75;101827.56;6175833;28;20230;-57
2021/03/26 00:12:54;;;;;;;35.00;30.60;;;;;;;10.71;63.82;101819.94;6209946;28;20244;-56
2021/03/26 00:16:14;;;;;;;39.70;31.50;;;;;;;10.54;64.56;101827.63;6205743;28;20230;-56
2021/03/26 00:19:34;;;;;;;38.23;29.87;;;;;;;10.44;64.46;101829.31;6201656;28;20741;-56
2021/03/26 00:22:54;;;;;;;35.60;29.20;;;;;;;10.30;65.29;101830.94;6206388;28;20467;-54
2021/03/26 00:26:16;;;;;;;38.77;32.13;;;;;;;10.24;65.24;101830.88;6207079;28;20222;-55
2021/03/26 00:29:36;;;;;;;38.80;32.13;;;;;;;10.07;66.48;101833.31;6202571;28;20237;-55
2021/03/26 00:32:57;;;;;;;35.57;30.00;;;;;;;9.97;66.47;101829.75;6200893;28;20261;-55
2021/03/26 00:36:17;;;;;;;39.70;33.03;;;;;;;10.08;65.91;101826.38;6199332;28;20248;-54
2021/03/26 00:39:38;;;;;;;40.43;32.47;;;;;;;10.09;66.13;101831.59;6203853;28;20233;-57
2021/03/26 00:43:00;;;;;;;39.67;29.80;;;;;;;9.75;67.45;101827.78;6214428;28;20634;-54
2021/03/26 00:46:23;;;;;;;37.70;30.80;;;;;;;9.95;66.42;101830.59;6194154;28;20233;-54
2021/03/26 00:49:44;;;;;;;36.33;30.33;;;;;;;10.05;65.94;101830.69;6211051;28;20229;-55
2021/03/26 00:53:09;;;;;;;36.67;31.57;;;;;;;10.04;65.42;101828.97;6201367;28;20225;-57
2021/03/26 00:56:30;;;;;;;36.63;31.10;;;;;;;9.62;67.15;101827.66;6209924;28;20630;-54
2021/03/26 00:59:51;;;;;;;38.57;29.73;;;;;;;9.82;65.59;101834.78;6208010;28;20233;-54
2021/03/26 01:03:12;;;;;;;36.73;30.33;;;;;;;9.78;65.97;101833.03;6213303;28;20224;-56
2021/03/26 01:06:33;;;;;;;36.73;30.10;;;;;;;9.36;66.74;101839.47;6198662;28;20230;-56
2021/03/26 01:09:53;;;;;;;32.13;27.57;;;;;;;9.25;66.66;101837.63;6193751;28;20302;-53
2021/03/26 01:13:16;;;;;;;35.67;29.40;;;;;;;9.32;67.03;101837.69;6215789;28;20248;-55
2021/03/26 01:16:37;;;;;;;33.57;28.13;;;;;;;9.30;66.49;101829.00;6219337;28;20233;-53
2021/03/26 01:19:58;;;;;;;33.17;29.13;;;;;;;9.40;66.02;101817.84;6227085;28;20669;-54
2021/03/26 01:23:19;;;;;;;32.83;28.13;;;;;;;9.44;65.81;101819.63;6199758;28;20236;-55
2021/03/26 01:26:39;;;;;;;34.53;29.40;;;;;;;9.32;66.10;101816.91;6202639;28;20339;-56
2021/03/26 01:30:14;;;;;;;31.10;27.63;;;;;;;9.24;65.96;101814.19;6201616;28;20336;-56
2021/03/26 01:33:35;;;;;;;35.97;25.83;;;;;;;9.53;64.91;101811.94;6214495;28;20241;-57
2021/03/26 01:36:55;;;;;;;31.47;27.07;;;;;;;9.54;64.79;101816.31;6195650;28;20240;-53
2021/03/26 01:40:23;;;;;;;36.70;28.80;;;;;;;9.34;65.60;101815.19;6201950;28;20241;-55
2021/03/26 01:43:43;;;;;;;35.90;28.80;;;;;;;9.30;65.69;101813.41;6200408;28;20244;-55
2021/03/26 01:47:04;;;;;;;32.10;27.33;;;;;;;9.63;64.11;101806.00;6196623;28;20229;-52
2021/03/26 01:50:30;;;;;;;37.03;28.07;;;;;;;9.59;64.58;101812.00;6216246;28;20236;-53
2021/03/26 01:53:54;;;;;;;36.77;26.87;;;;;;;9.76;63.42;101809.59;6201284;28;20232;-55
2021/03/26 01:57:15;;;;;;;28.00;24.93;;;;;;;9.91;62.81;101805.41;6204909;28;20225;-52
2021/03/26 02:00:53;;;;;;;32.70;27.07;;;;;;;9.79;62.76;101806.13;6188406;28;20526;-52
2021/03/26 02:04:24;;;;;;;30.53;24.47;;;;;;;10.03;62.02;101808.13;6204786;28;20639;-57
2021/03/26 02:07:47;;;;;;;32.10;27.83;;;;;;;9.85;62.14;101799.28;6194602;28;20506;-55
2021/03/26 02:11:20;;;;;;;30.70;25.60;;;;;;;10.05;61.63;101802.06;6189805;28;20243;-57
2021/03/26 02:14:43;;;;;;;32.13;26.77;;;;;;;9.91;61.78;101798.47;6197385;28;20593;-56
2021/03/26 02:18:05;;;;;;;35.43;26.07;;;;;;;10.09;61.63;101799.50;6196976;28;20240;-54
2021/03/26 02:21:29;;;;;;;32.80;27.27;;;;;;;9.95;61.67;101799.38;6210193;28;20233;-57
2021/03/26 02:24:53;;;;;;;30.83;26.13;;;;;;;9.86;61.80;101794.94;6203314;28;20237;-56
2021/03/26 02:28:14;;;;;;;29.17;24.90;;;;;;;10.02;61.65;101796.84;6198698;28;21008;-52
2021/03/26 02:31:35;;;;;;;32.33;28.20;;;;;;;9.99;61.50;101798.53;6194336;28;20225;-56
2021/03/26 02:35:21;;;;;;;33.10;26.53;;;;;;;9.74;61.71;101802.63;6196886;28;20322;-52
2021/03/26 02:38:47;;;;;;;31.33;26.50;;;;;;;9.92;61.44;101801.94;6199561;28;20238;-57
2021/03/26 02:42:21;;;;;;;34.97;27.50;;;;;;;9.57;63.09;101800.72;6195699;28;20232;-54
2021/03/26 02:45:59;;;;;;;33.27;27.03;;;;;;;9.91;61.80;101795.88;6183599;28;20260;-56
2021/03/26 02:49:28;;;;;;;31.17;26.77;;;;;;;9.93;61.97;101795.88;6220465;28;20253;-56
2021/03/26 02:52:55;;;;;;;33.30;27.47;;;;;;;9.82;62.27;101795.78;6193416;28;20799;-53
2021/03/26 02:56:20;;;;;;;35.90;30.27;;;;;;;9.57;63.04;101803.31;6222558;28;20221;-54
2021/03/26 02:59:51;;;;;;;29.60;25.20;;;;;;;9.62;63.35;101796.44;6192070;28;20229;-54
2021/03/26 03:03:16;;;;;;;34.63;27.80;;;;;;;8.80;66.03;101807.59;6198476;28;20233;-56
2021/03/26 03:06:45;;;;;;;39.07;31.97;;;;;;;8.93;65.70;101802.53;6201139;28;20507;-53
2021/03/26 03:10:23;;;;;;;36.37;29.27;;;;;;;9.03;65.61;101800.09;6197351;28;20257;-56
2021/03/26 03:13:48;;;;;;;34.77;30.17;;;;;;;8.70;66.97;101803.09;6185235;28;20256;-55
2021/03/26 03:17:16;;;;;;;45.43;33.53;;;;;;;8.92;66.46;101798.19;6209148;28;20593;-56
2021/03/26 03:20:44;;;;;;;40.57;31.23;;;;;;;8.67;67.08;101800.47;6195554;28;20491;-53
2021/03/26 03:24:11;;;;;;;39.80;32.77;;;;;;;8.79;66.49;101797.16;6200843;28;20233;-55
2021/03/26 03:27:43;;;;;;;36.87;31.90;;;;;;;8.80;66.78;101793.69;6200229;28;20229;-57
2021/03/26 03:31:17;;;;;;;35.87;31.67;;;;;;;9.11;66.33;101796.72;6210547;28;20580;-54
2021/03/26 03:34:42;;;;;;;38.13;31.63;;;;;;;8.91;66.21;101794.72;6210015;28;20519;-55
2021/03/26 03:38:11;;;;;;;38.50;33.00;;;;;;;8.79;67.36;101795.44;6202402;28;20601;-54
2021/03/26 03:41:38;;;;;;;40.70;34.70;;;;;;;8.83;67.17;101792.03;6187539;28;20331;-55
2021/03/26 03:45:02;;;;;;;49.10;39.73;;;;;;;8.44;68.53;101790.59;6197472;28;20893;-56
2021/03/26 03:48:33;;;;;;;44.00;37.53;;;;;;;8.67;67.51;101780.56;6174515;28;20229;-57
2021/03/26 03:52:02;;;;;;;42.13;35.43;;;;;;;8.54;68.39;101786.41;6214564;28;20241;-53
2021/03/26 03:55:29;;;;;;;39.90;34.33;;;;;;;8.77;67.20;101786.75;6197532;28;20233;-57
2021/03/26 03:58:58;;;;;;;44.57;38.23;;;;;;;8.75;67.16;101785.84;6194535;28;20244;-55
2021/03/26 04:02:24;;;;;;;48.07;40.10;;;;;;;8.77;67.42;101791.09;6194820;28;20329;-55
2021/03/26 04:05:54;;;;;;;43.67;36.87;;;;;;;8.78;67.48;101782.41;6185364;28;20590;-55
2021/03/26 04:09:25;;;;;;;49.17;40.03;;;;;;;8.75;67.47;101783.25;6188738;28;21726;-56
2021/03/26 04:12:56;;;;;;;45.27;38.60;;;;;;;8.57;68.14;101788.19;6170734;28;20224;-54
2021/03/26 04:16:22;;;;;;;43.73;35.20;;;;;;;8.53;68.72;101786.38;6191914;28;20218;-55
2021/03/26 04:19:51;;;;;;;45.00;37.33;;;;;;;8.90;67.42;101786.91;6189930;28;20610;-54
2021/03/26 04:23:17;;;;;;;41.33;36.73;;;;;;;8.80;67.29;101786.81;6188970;28;20230;-57
2021/03/26 04:26:56;;;;;;;45.83;38.60;;;;;;;8.55;67.97;101782.97;6193555;28;20241;-57
2021/03/26 04:30:58;;;;;;;47.30;38.17;;;;;;;8.71;67.76;101776.28;6203774;28;20225;-56
2021/03/26 04:34:32;;;;;;;46.23;40.13;;;;;;;8.63;67.95;101777.91;6195597;28;20228;-53
2021/03/26 04:38:04;;;;;;;50.00;41.93;;;;;;;8.51;68.42;101775.09;6198909;28;20319;-56
2021/03/26 04:41:32;;;;;;;51.17;42.50;;;;;;;8.29;69.03;101764.38;6221479;28;20233;-53
2021/03/26 04:45:02;;;;;;;47.93;38.53;;;;;;;8.00;70.31;101769.97;6221216;28;20236;-52
2021/03/26 04:48:39;;;;;;;47.33;36.50;;;;;;;8.35;69.38;101771.38;6194083;28;20229;-55
2021/03/26 04:52:22;;;;;;;48.40;39.37;;;;;;;8.41;69.11;101767.22;6195179;28;20229;-53
2021/03/26 04:55:50;;;;;;;46.53;36.00;;;;;;;8.68;67.60;101768.44;6206446;28;20228;-54
2021/03/26 04:59:49;;;;;;;49.17;40.37;;;;;;;8.47;67.49;101762.09;6210817;28;20228;-54
2021/03/26 05:03:20;;;;;;;47.40;37.80;;;;;;;8.01;69.56;101757.88;6190429;28;20544;-54
2021/03/26 05:06:46;;;;;;;46.07;36.70;;;;;;;8.36;68.72;101770.53;6195380;28;20543;-53
2021/03/26 05:10:12;;;;;;;47.87;40.67;;;;;;;8.30;68.79;101763.53;6187212;28;20233;-53
2021/03/26 05:13:47;;;;;;;46.83;37.73;;;;;;;8.19;69.25;101759.91;6196657;28;20327;-57
2021/03/26 05:17:21;;;;;;;50.87;37.87;;;;;;;8.70;67.13;101761.53;6188825;28;20237;-56
2021/03/26 05:21:06;;;;;;;45.73;37.47;;;;;;;8.55;67.35;101762.22;6207989;28;20225;-55
2021/03/26 05:24:35;;;;;;;47.63;37.63;;;;;;;8.94;66.53;101754.94;6191471;28;20236;-56
2021/03/26 05:28:16;;;;;;;41.50;34.37;;;;;;;8.42;67.65;101757.69;6205748;28;20573;-57
2021/03/26 05:31:50;;;;;;;44.63;36.33;;;;;;;8.55;67.90;101764.81;6194156;28;20228;-57
2021/03/26 05:35:45;;;;;;;48.40;39.47;;;;;;;8.22;68.64;101765.13;6140429;28;20241;-55
2021/03/26 05:39:34;;;;;;;45.97;37.50;;;;;;;8.42;67.59;101763.75;6190140;28;20535;-56
2021/03/26 05:43:45;;;;;;;46.80;37.40;;;;;;;8.45;67.48;101758.63;6172865;28;20422;-54
2021/03/26 05:47:30;;;;;;;51.33;39.57;;;;;;;7.65;70.65;101764.16;6218620;28;20582;-55
2021/03/26 05:51:15;;;;;;;42.80;34.20;;;;;;;8.35;68.33;101759.28;6195141;28;20504;-53
2021/03/26 05:54:58;;;;;;;45.87;36.67;;;;;;;8.14;68.87;101761.53;6214330;28;20221;-55
2021/03/26 05:58:32;;;;;;;49.20;37.83;;;;;;;8.06;69.52;101753.63;6191944;28;20229;-56
2021/03/26 06:02:29;;;;;;;52.30;39.03;;;;;;;8.04;69.32;101751.00;6185360;28;20269;-57
2021/03/26 06:06:32;;;;;;;51.67;40.47;;;;;;;7.88;69.83;101749.00;6192565;28;20438;-57
2021/03/26 06:10:38;;;;;;;47.07;37.83;;;;;;;8.44;68.16;101749.06;6204910;28;20236;-54
2021/03/26 06:14:36;;;;;;;47.13;36.43;;;;;;;8.44;68.16;101741.28;6208803;28;20229;-56
2021/03/26 06:18:35;;;;;;;45.07;34.93;;;;;;;8.22;68.58;101744.34;6208360;28;20256;-58
2021/03/26 06:22:30;;;;;;;46.47;37.87;;;;;;;8.10;69.55;101745.03;6204520;28;20239;-56
2021/03/26 06:26:20;;;;;;;45.00;36.33;;;;;;;8.64;67.89;101732.88;6209894;28;20645;-55
2021/03/26 06:30:11;;;;;;;48.30;36.93;;;;;;;8.74;67.17;101745.13;6191336;28;20226;-56
2021/03/26 06:34:15;;;;;;;47.87;39.00;;;;;;;8.70;67.27;101739.91;6186795;28;20245;-55
2021/03/26 06:38:12;;;;;;;49.83;38.60;;;;;;;9.05;66.27;101737.72;6198724;28;20244;-58
2021/03/26 06:41:52;;;;;;;44.93;36.20;;;;;;;8.81;67.14;101740.91;6204431;28;20646;-58
2021/03/26 06:45:38;;;;;;;47.87;38.43;;;;;;;8.09;69.38;101746.78;6212271;28;20237;-54
2021/03/26 06:49:08;;;;;;;44.23;35.90;;;;;;;8.15;69.19;101746.00;6203360;28;20336;-50
2021/03/26 06:52:47;;;;;;;46.63;36.90;;;;;;;8.76;67.25;101747.75;6207349;28;20512;-59
2021/03/26 06:56:39;;;;;;;49.30;39.03;;;;;;;8.61;67.92;101741.53;6201680;28;20591;-55
2021/03/26 07:00:21;;;;;;;46.80;38.03;;;;;;;8.37;68.67;101752.38;6208712;28;20463;-58
2021/03/26 07:04:16;;;;;;;45.90;36.97;;;;;;;8.81;67.99;101752.16;6206898;28;20256;-57
2021/03/26 07:08:07;;;;;;;63.73;39.77;;;;;;;9.61;66.42;101750.47;6208031;28;20694;-58
2021/03/26 07:11:50;;;;;;;47.20;37.57;;;;;;;9.61;66.21;101747.88;6204917;28;20224;-55
2021/03/26 07:15:14;;;;;;;44.03;37.43;;;;;;;10.03;65.44;101746.53;6198385;28;20229;-58
2021/03/26 07:18:52;;;;;;;47.13;38.00;;;;;;;9.78;65.18;101744.56;6209708;28;20233;-55
2021/03/26 07:22:31;;;;;;;49.97;38.20;;;;;;;9.46;65.79;101748.63;6213213;28;20221;-58
2021/03/26 07:26:30;;;;;;;48.93;39.43;;;;;;;8.97;68.51;101744.56;6215093;28;20248;-55
2021/03/26 07:30:27;;;;;;;46.30;39.27;;;;;;;9.30;67.16;101748.41;6194556;28;20229;-57
2021/03/26 07:33:54;;;;;;;43.77;38.87;;;;;;;9.83;65.70;101753.31;6212558;28;20679;-57
2021/03/26 07:37:23;;;;;;;49.37;41.60;;;;;;;10.04;65.44;101742.19;6213166;28;20228;-55
2021/03/26 07:40:57;;;;;;;54.93;43.03;;;;;;;10.28;64.52;101744.09;6204646;28;20248;-57
2021/03/26 07:44:43;;;;;;;48.80;38.93;;;;;;;10.39;65.05;101744.19;6212161;28;20614;-58
2021/03/26 07:48:32;;;;;;;42.47;36.97;;;;;;;10.88;63.20;101741.88;6206286;28;20337;-57
2021/03/26 07:51:59;;;;;;;47.17;39.73;;;;;;;9.88;66.70;101749.00;6212410;28;20602;-58
2021/03/26 07:55:37;;;;;;;48.10;39.93;;;;;;;10.40;65.43;101749.41;6200059;28;20237;-59
2021/03/26 07:59:19;;;;;;;49.07;40.73;;;;;;;10.35;66.14;101742.44;6201105;28;20233;-58
2021/03/26 08:02:55;;;;;;;46.57;40.53;;;;;;;10.87;63.78;101739.25;6209800;28;20229;-58
2021/03/26 08:07:00;;;;;;;49.77;40.97;;;;;;;11.38;62.77;101740.28;6205551;28;20237;-57
2021/03/26 08:10:37;;;;;;;48.13;40.23;;;;;;;11.66;61.35;101742.97;6190108;28;20236;-58
2021/03/26 08:14:32;;;;;;;48.33;41.07;;;;;;;11.75;61.22;101745.59;6209060;28;20228;-56
2021/03/26 08:18:07;;;;;;;44.77;39.17;;;;;;;12.05;61.04;101739.53;6206906;28;20586;-57
2021/03/26 08:21:36;;;;;;;45.57;39.80;;;;;;;11.65;62.28;101738.59;6206558;28;20245;-57
2021/03/26 08:25:19;;;;;;;46.10;39.07;;;;;;;11.50;63.12;101745.56;6193556;28;20233;-58
2021/03/26 08:28:54;;;;;;;50.97;40.03;;;;;;;11.71;61.63;101741.22;6198811;28;20521;-60
2021/03/26 08:32:42;;;;;;;45.83;39.37;;;;;;;11.76;61.35;101736.88;6212794;28;20240;-58
2021/03/26 08:36:15;;;;;;;42.47;35.03;;;;;;;13.50;55.97;101732.06;6210168;28;20761;-57
2021/03/26 08:39:41;;;;;;;49.33;38.17;;;;;;;12.85;57.53;101741.97;6206185;28;20561;-56
2021/03/26 08:43:05;;;;;;;46.83;36.57;;;;;;;13.46;56.60;101721.66;6206736;28;20234;-57
2021/03/26 08:46:29;;;;;;;41.33;34.47;;;;;;;13.75;53.65;101724.06;6198815;28;20327;-56
2021/03/26 08:49:53;;;;;;;36.60;30.87;;;;;;;13.63;52.77;101724.13;6206444;28;20316;-58
2021/03/26 08:53:23;;;;;;;37.57;31.83;;;;;;;12.99;53.88;101726.25;6208909;28;20585;-61
2021/03/26 08:56:55;;;;;;;35.37;31.53;;;;;;;12.94;54.38;101722.78;6213202;28;20708;-58
2021/03/26 09:00:26;;;;;;;33.73;29.30;;;;;;;13.03;53.43;101722.72;6205560;28;20229;-56
2021/03/26 09:03:58;;;;;;;34.03;26.83;;;;;;;13.22;52.72;101717.41;6206016;28;20229;-56
2021/03/26 09:07:28;;;;;;;30.73;26.27;;;;;;;13.28;52.30;101712.13;6197507;28;20503;-51
2021/03/26 09:11:15;;;;;;;30.40;27.13;;;;;;;13.45;51.01;101705.06;6182811;28;20236;-58
2021/03/26 09:14:55;;;;;;;29.40;23.77;;;;;;;12.96;51.95;101705.34;6209909;28;20621;-56
2021/03/26 09:18:34;;;;;;;27.07;24.07;;;;;;;13.11;52.04;101704.41;6209439;28;20224;-56
2021/03/26 09:22:02;;;;;;;30.97;24.13;;;;;;;12.59;52.41;101708.09;6203360;28;20359;-59
2021/03/26 09:25:43;;;;;;;24.20;21.57;;;;;;;12.76;51.82;101693.22;6208666;28;20237;-57
2021/03/26 09:29:10;;;;;;;23.63;19.67;;;;;;;14.18;48.57;101687.88;6204238;28;20233;-57
2021/03/26 09:32:34;;;;;;;25.30;22.07;;;;;;;13.86;48.89;101695.16;6208260;28;20233;-56
2021/03/26 09:36:00;;;;;;;22.33;18.60;;;;;;;13.37;49.43;101699.03;6208718;28;20615;-55
2021/03/26 09:39:22;;;;;;;22.33;19.50;;;;;;;14.21;47.95;101697.47;6196930;28;20315;-58
2021/03/26 09:42:47;;;;;;;22.83;18.90;;;;;;;13.23;49.56;101701.69;6211897;28;20233;-57
2021/03/26 09:46:12;;;;;;;24.67;20.20;;;;;;;14.33;47.36;101705.19;6206515;28;20268;-59
2021/03/26 09:49:39;;;;;;;27.13;21.37;;;;;;;13.86;47.76;101701.28;6212852;28;20233;-58
2021/03/26 09:53:00;;;;;;;26.87;20.60;;;;;;;14.87;46.23;101703.72;6223090;28;20610;-56
2021/03/26 09:56:38;;;;;;;26.13;18.70;;;;;;;14.07;46.99;101704.56;6214856;28;20233;-58
2021/03/26 10:00:34;;;;;;;18.10;16.23;;;;;;;13.73;46.61;101699.66;6221696;28;20237;-58
2021/03/26 10:04:02;;;;;;;20.27;15.53;;;;;;;14.13;44.89;101699.28;6192842;28;21056;-58
2021/03/26 10:07:33;;;;;;;33.40;16.97;;;;;;;13.90;45.76;101707.34;6206360;28;20240;-58
2021/03/26 10:11:04;;;;;;;38.50;16.50;;;;;;;14.70;44.03;101696.94;6210850;28;20229;-58
2021/03/26 10:14:29;;;;;;;21.07;14.70;;;;;;;14.79;42.33;101700.31;6209492;28;20308;-59
2021/03/26 10:17:57;;;;;;;13.93;12.40;;;;;;;13.98;43.88;101690.69;6213554;28;20243;-57
2021/03/26 10:21:22;;;;;;;20.43;12.33;;;;;;;14.49;43.25;101691.91;6198381;28;20520;-57
2021/03/26 10:24:49;;;;;;;17.90;13.47;;;;;;;14.52;42.68;101694.50;6203114;28;20233;-54
2021/03/26 10:28:19;;;;;;;18.70;14.23;;;;;;;15.44;42.16;101688.06;6193973;28;20499;-57
2021/03/26 10:31:45;;;;;;;19.30;13.83;;;;;;;14.66;42.67;101683.91;6209347;28;20240;-60
2021/03/26 10:35:17;;;;;;;14.03;11.90;;;;;;;14.68;42.35;101671.63;6207592;28;20229;-55
2021/03/26 10:38:48;;;;;;;17.53;13.17;;;;;;;15.10;42.39;101672.81;6198472;28;20233;-55
2021/03/26 10:42:20;;;;;;;15.73;13.53;;;;;;;15.36;42.29;101682.91;6211561;28;20221;-58
2021/03/26 10:46:02;;;;;;;16.53;14.33;;;;;;;15.60;41.24;101669.44;6203499;28;20245;-62
2021/03/26 10:49:31;;;;;;;16.43;13.00;;;;;;;16.11;39.53;101662.44;6215049;28;20494;-56
2021/03/26 10:53:01;;;;;;;18.87;15.00;;;;;;;16.66;38.32;101657.84;6206215;28;20673;-58
2021/03/26 10:56:35;;;;;;;14.23;12.37;;;;;;;17.65;35.47;101647.72;6215619;28;20315;-58
2021/03/26 11:00:01;;;;;;;14.27;12.77;;;;;;;16.57;38.31;101650.13;6209751;28;20224;-58
2021/03/26 11:03:25;;;;;;;16.73;12.93;;;;;;;16.37;38.76;101633.94;6208525;28;20237;-59
2021/03/26 11:06:49;;;;;;;18.80;13.93;;;;;;;15.80;39.99;101650.75;6212488;28;20236;-60
2021/03/26 11:10:14;;;;;;;14.70;12.00;;;;;;;15.13;40.61;101643.91;6209358;28;20318;-60
2021/03/26 11:13:54;;;;;;;13.73;11.30;;;;;;;16.72;36.88;101639.28;6216210;28;20736;-58
2021/03/26 11:17:38;;;;;;;14.27;10.60;;;;;;;16.18;37.92;101628.16;6210228;28;20677;-56
2021/03/26 11:21:00;;;;;;;14.00;10.73;;;;;;;16.28;37.65;101627.06;6214440;28;20257;-57
2021/03/26 11:24:21;;;;;;;10.93;9.20;;;;;;;16.82;36.43;101620.72;6212190;28;20229;-60
2021/03/26 11:27:48;;;;;;;12.80;11.50;;;;;;;17.16;36.08;101623.44;6208148;28;21145;-58
2021/03/26 11:31:22;;;;;;;14.57;12.03;;;;;;;15.64;38.79;101622.09;6213321;28;20224;-58
2021/03/26 11:34:49;;;;;;;15.13;11.93;;;;;;;16.20;37.67;101613.22;6219648;28;20240;-54
2021/03/26 11:38:15;;;;;;;13.77;12.23;;;;;;;16.14;38.16;101601.06;6213641;28;20696;-58
2021/03/26 11:41:43;;;;;;;13.93;10.57;;;;;;;14.83;39.95;101610.25;6215496;28;20240;-59
2021/03/26 11:45:19;;;;;;;12.83;9.93;;;;;;;15.43;38.94;101609.31;6213124;28;20217;-59
2021/03/26 11:48:52;;;;;;;11.03;9.93;;;;;;;16.25;37.34;101603.50;6207707;28;20323;-56
2021/03/26 11:52:17;;;;;;;13.30;10.97;;;;;;;17.22;34.96;101585.59;6211326;28;20603;-58
2021/03/26 11:55:41;;;;;;;13.23;10.47;;;;;;;16.18;37.21;101594.00;6202858;28;20233;-57
2021/03/26 11:59:47;;;;;;;11.47;9.43;;;;;;;15.64;38.41;101602.84;6210706;28;20229;-59
2021/03/26 12:03:17;;;;;;;10.93;9.63;;;;;;;17.64;35.28;101581.00;6196256;28;20248;-58
2021/03/26 12:06:45;;;;;;;11.67;10.47;;;;;;;16.13;36.84;101580.97;6189130;28;20320;-53
2021/03/26 12:10:20;;;;;;;10.60;9.47;;;;;;;16.85;36.56;101573.31;6205476;28;20224;-57
2021/03/26 12:13:47;;;;;;;11.03;8.67;;;;;;;18.16;34.04;101565.53;6208582;28;20824;-58
2021/03/26 12:17:30;;;;;;;10.10;8.77;;;;;;;23.26;25.81;101553.50;6201671;28;20221;-60
2021/03/26 12:21:04;;;;;;;11.68;7.85;;;;;;;22.44;25.00;101544.19;6201835;28;20225;-57
2021/03/26 12:24:32;;;;;;;8.38;7.45;;;;;;;21.90;26.02;101546.63;6208074;28;20346;-59
2021/03/26 12:27:56;;;;;;;10.07;9.13;;;;;;;21.85;26.79;101534.50;6193076;28;20245;-59
2021/03/26 12:31:20;;;;;;;9.10;8.00;;;;;;;23.70;23.67;101532.59;6198376;28;20230;-60
2021/03/26 12:34:52;;;;;;;10.65;8.13;;;;;;;22.87;24.61;101530.63;6197582;28;20229;-58
2021/03/26 12:38:22;;;;;;;10.75;7.40;;;;;;;23.15;24.31;101519.53;6197717;28;20224;-59
2021/03/26 12:41:49;;;;;;;10.38;9.43;;;;;;;18.88;29.99;101534.38;6197225;28;20221;-60
2021/03/26 12:45:20;;;;;;;8.90;7.95;;;;;;;22.54;25.77;101512.75;6203057;28;20232;-61
2021/03/26 12:48:44;;;;;;;9.45;8.55;;;;;;;24.76;22.06;101507.31;6196616;28;20499;-59
2021/03/26 12:52:16;;;;;;;9.75;8.85;;;;;;;18.96;29.55;101510.38;6199366;28;20253;-58
2021/03/26 12:55:54;;;;;;;9.18;8.27;;;;;;;20.22;28.12;101503.25;6196144;28;20260;-57
2021/03/26 12:59:19;;;;;;;11.05;10.05;;;;;;;17.00;33.95;101522.06;6202376;28;20677;-58
2021/03/26 13:02:46;;;;;;;11.43;10.23;;;;;;;16.54;35.50;101508.25;6214249;28;20236;-57
2021/03/26 13:06:11;;;;;;;13.10;11.82;;;;;;;16.68;36.76;101506.13;6200116;28;20221;-57
2021/03/26 13:09:37;;;;;;;12.25;11.15;;;;;;;18.50;33.36;101493.34;6206468;28;20228;-57
2021/03/26 13:13:10;;;;;;;13.88;12.00;;;;;;;17.96;35.09;101483.56;6207974;28;20311;-56
2021/03/26 13:16:42;;;;;;;15.60;14.10;;;;;;;17.22;34.92;101475.91;6215704;28;20228;-58
2021/03/26 13:20:08;;;;;;;16.03;14.43;;;;;;;16.29;36.93;101482.50;6212186;28;20233;-55
2021/03/26 13:23:33;;;;;;;14.80;13.30;;;;;;;17.43;35.33;101479.75;6213541;28;20225;-61
2021/03/26 13:27:29;;;;;;;19.20;14.77;;;;;;;18.27;34.43;101473.81;6213654;28;20617;-56
2021/03/26 13:30:59;;;;;;;15.37;13.87;;;;;;;17.46;35.13;101469.09;6210519;28;20229;-58
2021/03/26 13:34:24;;;;;;;17.80;14.43;;;;;;;18.72;33.28;101468.91;6216158;28;20232;-58
2021/03/26 13:37:47;;;;;;;17.23;15.37;;;;;;;16.64;36.86;101467.66;6212511;28;20233;-58
2021/03/26 13:41:20;;;;;;;17.50;15.83;;;;;;;16.80;37.20;101459.41;6213129;28;20337;-58
2021/03/26 13:45:01;;;;;;;19.50;17.50;;;;;;;17.26;36.48;101445.97;6214102;28;20229;-58
2021/03/26 13:48:25;;;;;;;17.67;15.83;;;;;;;20.79;30.29;101434.00;6211360;28;20260;-56
2021/03/26 13:51:49;;;;;;;21.30;16.58;;;;;;;18.98;32.31;101439.91;6211730;28;20234;-60
2021/03/26 13:55:29;;;;;;;21.97;17.57;;;;;;;16.57;37.38;101438.94;6213232;28;20232;-58
2021/03/26 13:58:53;;;;;;;19.30;17.30;;;;;;;16.79;37.25;101431.38;6217228;28;20225;-58
2021/03/26 14:02:20;;;;;;;19.93;17.93;;;;;;;17.11;37.06;101420.91;6199245;28;20604;-58
2021/03/26 14:05:46;;;;;;;18.40;16.53;;;;;;;16.96;37.30;101418.69;6207786;28;20327;-60
2021/03/26 14:09:16;;;;;;;18.23;16.30;;;;;;;21.02;30.21;101407.41;6213432;28;20232;-59
2021/03/26 14:12:40;;;;;;;22.97;18.33;;;;;;;16.73;36.33;101417.50;6210831;28;21637;-57
2021/03/26 14:16:07;;;;;;;16.93;15.33;;;;;;;16.84;36.59;101406.72;6219519;28;20269;-58
2021/03/26 14:19:40;;;;;;;15.67;14.10;;;;;;;16.96;36.32;101397.63;6200159;28;20267;-57
2021/03/26 14:23:05;;;;;;;14.83;13.27;;;;;;;17.87;34.12;101403.91;6209480;28;20233;-55
2021/03/26 14:26:34;;;;;;;14.40;13.00;;;;;;;16.93;35.54;101388.06;6208886;28;20245;-57
2021/03/26 14:30:14;;;;;;;15.50;13.27;;;;;;;19.33;31.42;101377.09;6210240;28;20653;-56
2021/03/26 14:33:44;;;;;;;17.40;15.70;;;;;;;18.80;32.13;101371.94;6217635;28;20225;-56
2021/03/26 14:37:14;;;;;;;15.20;13.67;;;;;;;19.25;31.88;101373.84;6211351;28;20233;-55
2021/03/26 14:40:35;;;;;;;15.27;13.83;;;;;;;21.15;29.29;101361.81;6203145;28;20327;-58
2021/03/26 14:44:07;;;;;;;15.83;14.17;;;;;;;20.30;29.53;101359.25;6209520;28;20241;-59
2021/03/26 14:47:32;;;;;;;15.15;13.65;;;;;;;17.57;33.54;101383.69;6198816;28;20229;-60
2021/03/26 14:51:05;;;;;;;13.00;11.80;;;;;;;16.70;34.84;101361.47;6199079;28;20226;-60
2021/03/26 14:54:31;;;;;;;14.33;13.00;;;;;;;18.01;32.96;101360.41;6204900;28;20249;-59
2021/03/26 14:58:03;;;;;;;13.53;12.03;;;;;;;18.41;32.18;101369.69;6204348;28;20225;-58
2021/03/26 15:01:29;;;;;;;18.67;13.57;;;;;;;17.04;34.72;101356.22;6210210;28;20237;-58
2021/03/26 15:04:55;;;;;;;14.87;13.27;;;;;;;16.67;35.72;101358.91;6200947;28;20232;-57
2021/03/26 15:08:18;;;;;;;14.00;12.60;;;;;;;16.10;36.88;101370.81;6203716;28;20269;-58
2021/03/26 15:11:56;;;;;;;16.50;14.50;;;;;;;16.79;35.65;101350.72;6197555;28;20253;-59
2021/03/26 15:15:44;;;;;;;15.93;14.20;;;;;;;17.28;35.53;101338.00;6203562;28;20245;-58
2021/03/26 15:19:14;;;;;;;14.67;13.17;;;;;;;17.37;34.66;101337.75;6201087;28;20770;-58
2021/03/26 15:22:42;;;;;;;13.07;11.87;;;;;;;17.86;33.55;101338.94;6199399;28;20226;-59
2021/03/26 15:26:09;;;;;;;12.67;11.47;;;;;;;18.75;32.23;101327.22;6200750;28;20229;-56
2021/03/26 15:29:34;;;;;;;13.10;11.70;;;;;;;18.28;32.57;101321.75;6202270;28;20229;-57
2021/03/26 15:33:00;;;;;;;11.50;10.27;;;;;;;18.93;31.49;101312.53;6200080;28;20229;-59
2021/03/26 15:36:27;;;;;;;12.32;11.18;;;;;;;18.63;32.22;101310.03;6184211;28;20337;-60
2021/03/26 15:39:55;;;;;;;11.65;10.55;;;;;;;18.35;32.04;101307.47;6201698;28;20233;-58
2021/03/26 15:43:21;;;;;;;11.57;10.48;;;;;;;17.28;33.78;101324.84;6202194;28;20293;-60
2021/03/26 15:46:51;;;;;;;11.70;10.43;;;;;;;17.08;34.32;101310.50;6198832;28;20229;-57
2021/03/26 15:50:19;;;;;;;13.10;11.80;;;;;;;17.85;32.69;101307.34;6204672;28;20563;-59
2021/03/26 15:53:47;;;;;;;10.73;9.63;;;;;;;18.04;32.38;101299.72;6204642;28;20221;-58
2021/03/26 15:57:29;;;;;;;11.10;10.00;;;;;;;18.16;32.27;101286.13;6210221;28;20216;-59
2021/03/26 16:01:15;;;;;;;12.97;10.30;;;;;;;16.90;34.08;101300.47;6199779;28;20230;-58
2021/03/26 16:04:56;;;;;;;10.57;8.83;;;;;;;16.96;33.92;101297.66;6203592;28;20248;-58
2021/03/26 16:08:41;;;;;;;10.47;9.47;;;;;;;17.15;33.80;101292.75;6201560;28;20588;-58
2021/03/26 16:12:33;;;;;;;12.77;10.07;;;;;;;16.85;34.09;101291.88;6199351;28;20980;-56